• Join FlightAware (Why Join?)
  • Login
  • US Flag 
01:33PM EDT


 

Airport Tracker/Info


-or-


 

Live Flight TrackerFlight Track Log ✈ AFR748 ✈ 12-May-2013 ✈ LFPG / CDG - GUCY / CKY

Flight Track Log - Related Links

Times and Time Zones

All times are in EDT time to prevent confusion due to time zone crossing. See the AFR748 flight status page for this flight to view local times or setup timezone preferences in your user account.

Time Position Orientation Groundspeed Altitude Reporting Facility
EDT Latitude Longitude Course Direction KTS MPH feet Rate Location/Type
07:42AM 47.5017 1.5397 204° Southwest  Level Estimated
07:42AM 48.9961 2.5615 204° Southwest 157 181 600  Level FlightAware ADS-B
07:42AM 48.9956 2.5545 264° West 153 176 900 2,220 Climbing FlightAware ADS-B
07:43AM 48.9941 2.5359 263° West 155 178 1,500 1,920 Climbing FlightAware ADS-B
07:43AM 48.9926 2.5181 263° West 159 183 2,000 1,800 Climbing FlightAware ADS-B
07:43AM 48.9920 2.5070 265° West 160 184 2,300 1,620 Climbing FlightAware ADS-B
07:43AM 48.9916 2.4976 266° West 163 188 2,500 1,260 Climbing FlightAware ADS-B
07:44AM 48.9907 2.4797 266° West 165 190 2,800 1,380 Climbing FlightAware ADS-B
07:44AM 48.9899 2.4630 266° West 169 194 3,200 1,320 Climbing FlightAware ADS-B
07:44AM 48.9891 2.4428 267° West 178 205 3,500 600 Climbing FlightAware ADS-B
07:44AM 48.9877 2.4132 266° West 206 237 3,600 600 Climbing FlightAware ADS-B
07:45AM 48.9865 2.3902 265° West 225 259 3,900 1,020 Climbing FlightAware ADS-B
07:45AM 48.9853 2.3672 265° West 244 281 4,100 1,500 Climbing FlightAware ADS-B
07:45AM 48.9845 2.3500 266° West 250 288 4,500 2,640 Climbing FlightAware ADS-B
07:45AM 48.9832 2.3235 266° West 253 291 5,200 3,000 Climbing FlightAware ADS-B
07:46AM 48.9818 2.2974 265° West 249 287 6,000 2,760 Climbing FlightAware ADS-B
07:46AM 48.9802 2.2706 265° West 251 289 6,600 2,460 Climbing FlightAware ADS-B
07:46AM 48.9786 2.2416 265° West 257 296 7,300 2,880 Climbing FlightAware ADS-B
07:46AM 48.9771 2.2147 265° West 255 293 8,100 2,820 Climbing FlightAware ADS-B
07:46AM 48.9761 2.2054 261° West 257 296 8,300 1,620 Climbing FlightAware ADS-B
07:47AM 48.9745 2.1968 254° West 261 300 8,400 1,800 Climbing FlightAware ADS-B
07:47AM 48.9716 2.1871 246° West 266 306 8,600 2,280 Climbing FlightAware ADS-B
07:47AM 48.9617 2.1628 238° Southwest 270 311 9,200 2,340 Climbing FlightAware ADS-B
07:47AM 48.9497 2.1352 237° Southwest 274 315 9,900 2,340 Climbing FlightAware ADS-B
07:47AM 48.9410 2.1169 234° Southwest 278 320 10,300 1,740 Climbing FlightAware ADS-B
07:47AM 48.9359 2.1092 225° Southwest 285 328 10,400 1,200 Climbing FlightAware ADS-B
07:48AM 48.9312 2.1040 216° Southwest 295 339 10,500 960 Climbing FlightAware ADS-B
07:48AM 48.9217 2.0977 204° Southwest 307 353 10,600 -2,940 Climbing FlightAware ADS-B
07:48AM 48.9031 2.0947 204° Southwest 1 1 9,200 1,200 Descending FlightAware UK
07:48AM 48.8776 2.0815 204° Southwest 338 389 11,200 2,580 Climbing FlightAware ADS-B
07:48AM 48.8476 2.0691 204° Southwest 336 387 10,500 2,640 Descending FlightAware UK
07:49AM 48.8224 2.0604 204° Southwest 338 389 12,800 1,980 Climbing FlightAware ADS-B
07:49AM 48.7922 2.0474 204° Southwest 334 384 11,700 1,260 Descending FlightAware UK
07:49AM 48.7712 2.0402 204° Southwest 357 411 13,500 3,120 Climbing FlightAware ADS-B
07:50AM 48.7132 2.0174 195° South 384 442 14,200 -360 Climbing FlightAware ADS-B
07:50AM 48.6854 2.0141 195° South 368 423 13,200 1,920 Descending FlightAware UK
07:50AM 48.6645 1.9988 195° South 400 460 15,100 5,760 Climbing FlightAware ADS-B
07:51AM 48.6356 1.9948 185° South 411 473 15,600 -660 Climbing FlightAware ADS-B
07:51AM 48.5910 1.9972 185° South 1 1 14,700 1,800 Descending FlightAware UK
07:51AM 48.5771 1.9965 185° South 423 487 16,500 4,260 Climbing FlightAware ADS-B
07:52AM 48.5163 1.9978 179° South 431 496 17,400 1,800 Climbing FlightAware ADS-B
07:52AM 48.4537 1.9994 179° South 440 506 18,400 1,800 Climbing FlightAware ADS-B
07:53AM 48.3913 2.0010 179° South 445 512 19,300 1,740 Climbing FlightAware ADS-B
07:53AM 48.3289 2.0026 179° South 451 519 20,200 1,500 Climbing FlightAware ADS-B
07:54AM 48.2568 2.0038 179° South 462 532 20,900 1,080 Climbing FlightAware ADS-B
07:54AM 48.2259 1.9949 191° South 459 528 21,100 1,200 Climbing FlightAware ADS-B
07:54AM 48.1635 1.9675 196° South 468 539 21,800 1,440 Climbing FlightAware ADS-B
07:55AM 48.0900 1.9385 195° South 476 548 22,700 1,560 Climbing FlightAware ADS-B
07:56AM 48.0261 1.9119 196° South 476 548 23,500 1,320 Climbing FlightAware ADS-B
07:57AM 47.9020 1.8600 196° South 487 560 24,800 1,260 Climbing FlightAware
07:58AM 47.6500 1.7550 204° Southwest 503 579 27,200 1,200 Climbing FlightAware
07:59AM 47.7121 1.7350 204° Southwest  Level Estimated
07:59AM 47.5690 1.7220 195° South 507 583 27,800  Level FlightAware
08:00AM 47.4750 1.6840 195° South 511 588 28,600 1,860 Climbing FlightAware
08:01AM 47.2750 1.6020 196° South 477 549 31,900 1,440 Climbing FlightAware
08:02AM 47.1340 1.5450 195° South 485 558 32,500 540 Climbing FlightAware
08:03AM 47.0440 1.5090 195° South 490 564 32,900 720 Climbing FlightAware
08:04AM 46.9660 1.4770 196° South 491 565 33,400 960 Climbing FlightAware
08:04AM 46.9040 1.4530 195° South 487 560 34,000 420 Climbing FlightAware
08:07AM 46.6634 1.2986 204° Southwest  Level Estimated
08:07AM 46.5420 1.2420 204° Southwest 489 563 35,000  Level FlightAware
08:08AM 46.4800 1.1940 208° Southwest 489 563 35,000  Level FlightAware
08:08AM 46.4200 1.1480 208° Southwest 488 562 35,000  Level FlightAware
08:09AM 46.3520 1.0960 208° Southwest 487 560 35,000  Level FlightAware
08:09AM 46.2710 1.0340 208° Southwest 479 551 35,000  Level FlightAware
08:10AM 46.2290 1.0010 209° Southwest 479 551 35,000  Level FlightAware
08:12AM 46.0553 0.8925 203° Southwest  Level Estimated
08:13AM 45.9540 0.8296 203° Southwest  Level Estimated
08:13AM 45.8100 0.6840 203° Southwest 474 545 35,000  Level FlightAware
08:14AM 45.7410 0.6320 208° Southwest 476 548 35,000  Level FlightAware
08:17AM 45.4738 0.4694 203° Southwest  Level Estimated
08:17AM 45.3770 0.3600 203° Southwest 470 541 35,000  Level FlightAware
08:17AM 45.3180 0.3160 208° Southwest 475 547 35,000  Level FlightAware
08:18AM 45.2300 0.2510 207° Southwest 471 542 35,000  Level FlightAware
08:19AM 45.1730 0.2090 207° Southwest 469 540 35,000  Level FlightAware
08:19AM 45.0960 0.1520 208° Southwest 469 540 35,000  Level FlightAware
08:20AM 45.0280 0.1030 207° Southwest 468 539 35,000  Level FlightAware
08:20AM 44.9710 0.0610 208° Southwest 468 539 35,000  Level FlightAware
08:21AM 44.9030 0.0120 207° Southwest 468 539 35,000  Level FlightAware
08:22AM 44.7970 -0.0660 208° Southwest 469 540 35,000  Level FlightAware
08:22AM 44.7400 -0.1070 207° Southwest 470 541 35,000  Level FlightAware
08:23AM 44.6550 -0.1740 209° Southwest 469 540 35,000  Level FlightAware
08:24AM 44.5510 -0.2600 211° Southwest 471 542 35,000  Level FlightAware
08:25AM 44.4570 -0.3370 210° Southwest 470 541 35,000  Level FlightAware
08:26AM 44.3730 -0.4060 210° Southwest 469 540 35,000  Level FlightAware
08:27AM 44.2700 -0.4890 210° Southwest 470 541 35,000  Level FlightAware
08:27AM 44.2060 -0.5420 211° Southwest 469 540 35,000  Level FlightAware
08:28AM 44.1410 -0.5940 210° Southwest 467 537 35,000  Level FlightAware
08:29AM 44.0260 -0.6870 210° Southwest 468 539 35,000  Level FlightAware
08:29AM 43.9520 -0.7470 210° Southwest 469 540 35,000  Level FlightAware
08:30AM 43.8950 -0.7920 210° Southwest 466 536 35,000  Level FlightAware
08:31AM 43.8020 -0.8660 210° Southwest 461 531 35,000  Level FlightAware
08:32AM 43.6940 -0.9520 210° Southwest 461 531 35,000  Level FlightAware
08:33AM 43.5990 -1.0280 210° Southwest 459 528 35,000  Level FlightAware
08:33AM 43.5180 -1.0920 210° Southwest 456 525 35,000  Level FlightAware
08:34AM 43.4420 -1.1520 210° Southwest 457 526 35,000  Level FlightAware
08:36AM 43.2808 -1.2390 201° Southwest  Level Estimated
08:36AM 43.2450 -1.3060 201° Southwest 462 532 35,000  Level FlightAware
08:38AM 43.0576 -1.4060 201° Southwest  Level Estimated
08:38AM 42.9780 -1.5130 201° Southwest 461 531 35,000  Level FlightAware
08:39AM 42.9150 -1.5620 210° Southwest 461 531 35,000  Level FlightAware
08:39AM 42.8460 -1.6150 209° Southwest 461 531 35,000  Level FlightAware
08:41AM 42.7060 -1.7200 209° Southwest 461 531 35,000  Level FlightAware
08:42AM 42.5900 -1.7990 207° Southwest 457 526 35,000  Level FlightAware
08:42AM 42.5230 -1.8440 206° Southwest 456 525 35,000  Level FlightAware
08:43AM 42.4290 -1.9060 206° Southwest 451 519 35,000  Level FlightAware
08:44AM 42.3160 -1.9820 206° Southwest 448 516 35,000  Level FlightAware
08:45AM 42.2480 -2.0270 206° Southwest 449 517 35,000  Level FlightAware
08:45AM 42.1640 -2.0820 206° Southwest 450 518 35,000  Level FlightAware
08:46AM 42.1040 -2.1220 206° Southwest 450 518 35,000  Level FlightAware
08:47AM 42.0100 -2.1840 206° Southwest 452 520 35,000  Level FlightAware
08:47AM 41.9310 -2.2360 206° Southwest 453 521 35,000  Level FlightAware
08:48AM 41.8560 -2.2850 206° Southwest 453 521 35,000  Level FlightAware
08:49AM 41.7410 -2.3600 206° Southwest 451 519 35,000  Level FlightAware
08:50AM 41.6810 -2.3990 206° Southwest 453 521 35,000  Level FlightAware
08:50AM 41.6230 -2.4370 206° Southwest 453 521 35,000  Level FlightAware
08:51AM 41.5380 -2.4910 205° Southwest 452 520 35,000  Level FlightAware
08:52AM 41.4650 -2.5390 206° Southwest 450 518 35,000  Level FlightAware
08:52AM 41.3770 -2.5900 204° Southwest 452 520 35,000  Level FlightAware
08:53AM 41.2560 -2.6200 191° South 460 529 35,000  Level FlightAware
08:54AM 41.1570 -2.6150 178° South 466 536 35,000  Level FlightAware
08:55AM 41.0710 -2.6070 176° South 467 537 35,000  Level FlightAware
08:56AM 40.9230 -2.5940 176° South 467 537 35,000  Level FlightAware
08:57AM 40.8320 -2.5860 176° South 467 537 35,000  Level FlightAware
08:57AM 40.7540 -2.5790 176° South 467 537 35,000  Level FlightAware
08:58AM 40.6820 -2.5730 176° South 464 534 35,000  Level FlightAware
08:58AM 40.6200 -2.5860 189° South 446 513 35,000  Level FlightAware
08:59AM 40.5600 -2.6090 196° South 446 513 35,000  Level FlightAware
09:00AM 40.4680 -2.6440 196° South 446 513 35,000  Level FlightAware
09:00AM 40.3840 -2.6760 196° South 447 514 35,000  Level FlightAware
09:01AM 40.3240 -2.7000 197° South 445 512 35,000  Level FlightAware
09:02AM 40.2070 -2.7470 197° South 442 509 35,000  Level FlightAware
09:03AM 40.1160 -2.7830 197° South 443 510 35,000  Level FlightAware
09:03AM 40.0680 -2.8020 197° South 443 510 35,000  Level FlightAware
09:04AM 39.9780 -2.8380 197° South 443 510 35,000  Level FlightAware
09:04AM 39.9000 -2.8690 197° South 443 510 35,000  Level FlightAware
09:05AM 39.8400 -2.8930 197° South 442 509 35,000  Level FlightAware
09:06AM 39.7540 -2.9270 197° South 440 506 35,000  Level FlightAware
09:07AM 39.6180 -2.9810 197° South 440 506 35,000  Level FlightAware
09:08AM 39.5290 -3.0160 197° South 441 507 35,000  Level FlightAware
09:08AM 39.4680 -3.0390 196° South 444 511 35,000  Level FlightAware
09:09AM 39.3960 -3.0680 197° South 444 511 35,000  Level FlightAware
09:09AM 39.3240 -3.0960 197° South 441 507 35,000  Level FlightAware
09:10AM 39.2480 -3.1250 196° South 440 506 35,000  Level FlightAware
09:12AM 39.0340 -3.2080 197° South 443 510 35,000  Level FlightAware
09:13AM 38.9510 -3.2450 199° South 439 505 35,000  Level FlightAware
09:13AM 38.8520 -3.2920 200° South 441 507 35,000  Level FlightAware
09:14AM 38.8070 -3.3140 201° Southwest 440 506 35,000  Level FlightAware
09:14AM 38.7440 -3.3450 201° Southwest 438 504 35,000  Level FlightAware
09:15AM 38.6330 -3.3970 200° South 433 498 35,000  Level FlightAware
09:16AM 38.5760 -3.4240 200° South 433 498 35,000  Level FlightAware
09:17AM 38.4380 -3.4900 201° Southwest 427 491 35,000  Level FlightAware
09:18AM 38.3020 -3.5550 201° Southwest 435 501 35,000  Level FlightAware
09:19AM 38.2060 -3.6000 200° South 437 503 35,000  Level FlightAware
09:20AM 38.1260 -3.6400 201° Southwest 431 496 35,000  Level FlightAware
09:20AM 38.0580 -3.6780 204° Southwest 431 496 35,000  Level FlightAware
09:21AM 37.9590 -3.7350 204° Southwest 433 498 35,000  Level FlightAware
09:22AM 37.8750 -3.7820 204° Southwest 433 498 35,000  Level FlightAware
09:23AM 37.7770 -3.8370 204° Southwest 432 497 35,000  Level FlightAware
09:24AM 37.7030 -3.8780 204° Southwest 432 497 35,000  Level FlightAware
09:25AM 37.6020 -3.9350 204° Southwest 434 499 35,000  Level FlightAware
09:25AM 37.5390 -3.9700 204° Southwest 431 496 35,000  Level FlightAware
09:26AM 37.4290 -4.0310 204° Southwest 426 490 35,000  Level FlightAware
09:27AM 37.3660 -4.0660 204° Southwest 427 491 35,000  Level FlightAware
09:27AM 37.3040 -4.1000 204° Southwest 428 493 35,000  Level FlightAware
09:28AM 37.2200 -4.1470 204° Southwest 428 493 35,000  Level FlightAware
09:29AM 37.1400 -4.1910 204° Southwest 427 491 35,000  Level FlightAware
09:29AM 37.0760 -4.2260 204° Southwest 424 488 35,000  Level FlightAware
09:30AM 36.9960 -4.2700 204° Southwest 420 483 35,000  Level FlightAware
09:31AM 36.9340 -4.3040 204° Southwest 418 481 35,000  Level FlightAware
09:31AM 36.8540 -4.3480 204° Southwest 418 481 35,000  Level FlightAware
09:32AM 36.7610 -4.4120 209° Southwest 408 470 35,000  Level FlightAware
09:33AM 36.6900 -4.4680 212° Southwest 410 472 35,000  Level FlightAware
09:34AM 36.6170 -4.5260 213° Southwest 401 461 35,000  Level FlightAware
09:34AM 36.5650 -4.5680 213° Southwest 400 460 35,000  Level FlightAware
09:35AM 36.5040 -4.6160 212° Southwest 398 458 35,000  Level FlightAware
09:36AM 36.4570 -4.6520 212° Southwest 399 459 35,000  Level FlightAware
09:36AM 36.4000 -4.6970 212° Southwest 400 460 35,000  Level FlightAware
09:37AM 36.3080 -4.7700 213° Southwest 402 463 35,000  Level FlightAware
09:38AM 36.2120 -4.8450 212° Southwest 406 467 35,000  Level FlightAware
09:39AM 36.1550 -4.8900 213° Southwest 405 466 35,000  Level FlightAware
09:39AM 36.1000 -4.9330 212° Southwest 402 463 35,000  Level FlightAware
09:40AM 36.0380 -4.9820 213° Southwest 401 461 35,000  Level FlightAware
09:41AM 35.9860 -5.0230 213° Southwest 401 461 35,000  Level FlightAware
09:41AM 35.9390 -5.0600 213° Southwest 402 463 35,000  Level FlightAware
09:42AM 35.8960 -5.0950 213° Southwest 402 463 35,000  Level FlightAware
09:42AM 35.8300 -5.1470 213° Southwest 392 451 35,000  Level FlightAware
09:43AM 35.7800 -5.1930 217° Southwest 389 448 35,000  Level FlightAware
09:44AM 35.7200 -5.2480 217° Southwest 387 445 35,000  Level FlightAware
09:44AM 35.6610 -5.3020 217° Southwest 387 445 35,000  Level FlightAware
09:45AM 35.6030 -5.3550 217° Southwest 387 445 35,000  Level FlightAware
09:46AM 35.5440 -5.4090 217° Southwest 388 447 35,000  Level FlightAware
09:46AM 35.4640 -5.4820 217° Southwest 388 447 35,000  Level FlightAware
09:48AM 35.3700 -5.5690 217° Southwest 386 444 35,000  Level FlightAware
09:48AM 35.3120 -5.6210 216° Southwest 385 443 35,000  Level FlightAware
09:49AM 35.2470 -5.6800 217° Southwest 386 444 35,000  Level FlightAware
09:49AM 35.2090 -5.7150 217° Southwest 386 444 35,000  Level FlightAware
09:50AM 35.1510 -5.7670 216° Southwest 387 445 35,000  Level FlightAware
09:51AM 35.0850 -5.8270 217° Southwest 388 447 35,000  Level FlightAware
09:52AM 35.0040 -5.9000 216° Southwest 388 447 35,000  Level FlightAware
09:52AM 34.9570 -5.9420 216° Southwest 386 444 35,000  Level FlightAware
09:53AM 34.8870 -6.0050 216° Southwest 388 447 35,000  Level FlightAware
09:54AM 34.8000 -6.0830 216° Southwest 388 447 35,000  Level FlightAware
09:55AM 34.7550 -6.1240 217° Southwest 388 447 35,000  Level FlightAware
09:55AM 34.6890 -6.1820 216° Southwest 388 447 35,000  Level FlightAware
09:56AM 34.6290 -6.2360 217° Southwest 388 447 35,000  Level FlightAware
09:57AM 34.5340 -6.3200 216° Southwest 397 457 35,000  Level FlightAware
09:58AM 34.4580 -6.3870 216° Southwest 397 457 35,000  Level FlightAware
09:58AM 34.4110 -6.4290 216° Southwest 396 456 35,000  Level FlightAware
09:59AM 34.3310 -6.4990 216° Southwest 396 456 35,000  Level FlightAware
10:00AM 34.2810 -6.5430 216° Southwest 396 456 35,000  Level FlightAware
10:01AM 34.2180 -6.5990 216° Southwest 396 456 35,000  Level FlightAware
10:03AM 34.0374 -6.6625 196° South  Level Estimated
10:04AM 33.9269 -6.7013 196° South  Level Estimated
10:05AM 33.8163 -6.7400 196° South  Level Estimated
10:06AM 33.7057 -6.7786 196° South  Level Estimated
10:07AM 33.5951 -6.8170 196° South  Level Estimated
10:08AM 33.4845 -6.8554 196° South  Level Estimated
10:09AM 33.3739 -6.8937 196° South  Level Estimated
10:10AM 33.2632 -6.9318 196° South  Level Estimated
10:11AM 33.1526 -6.9699 196° South  Level Estimated
10:12AM 33.0419 -7.0079 196° South  Level Estimated
10:13AM 32.9313 -7.0458 196° South  Level Estimated
10:14AM 32.8206 -7.0836 196° South  Level Estimated
10:15AM 32.7099 -7.1213 196° South  Level Estimated
10:16AM 32.5992 -7.1589 196° South  Level Estimated
10:17AM 32.4885 -7.1964 196° South  Level Estimated
10:18AM 32.3778 -7.2339 196° South  Level Estimated
10:19AM 32.2670 -7.2712 196° South  Level Estimated
10:20AM 32.1563 -7.3084 196° South  Level Estimated
10:21AM 32.0455 -7.3456 196° South  Level Estimated
10:22AM 31.9347 -7.3826 196° South  Level Estimated
10:23AM 31.8240 -7.4196 196° South  Level Estimated
10:24AM 31.7132 -7.4565 196° South  Level Estimated
10:25AM 31.6024 -7.4933 196° South  Level Estimated
10:26AM 31.4916 -7.5300 196° South  Level Estimated
10:27AM 31.3807 -7.5666 196° South  Level Estimated
10:28AM 31.2699 -7.6031 196° South  Level Estimated
10:29AM 31.1591 -7.6396 196° South  Level Estimated
10:30AM 31.0482 -7.6759 196° South  Level Estimated
10:31AM 30.9374 -7.7122 196° South  Level Estimated
10:32AM 30.8265 -7.7484 196° South  Level Estimated
10:33AM 30.7156 -7.7845 196° South  Level Estimated
10:34AM 30.6047 -7.8205 196° South  Level Estimated
10:35AM 30.4938 -7.8565 196° South  Level Estimated
10:36AM 30.3829 -7.8924 196° South  Level Estimated
10:37AM 30.2720 -7.9281 196° South  Level Estimated
10:38AM 30.1611 -7.9638 196° South  Level Estimated
10:39AM 30.0501 -7.9995 196° South  Level Estimated
10:40AM 29.9392 -8.0350 196° South  Level Estimated
10:41AM 29.8282 -8.0704 195° South  Level Estimated
10:42AM 29.7172 -8.1058 195° South  Level Estimated
10:43AM 29.6063 -8.1411 195° South  Level Estimated
10:44AM 29.4953 -8.1764 195° South  Level Estimated
10:45AM 29.3843 -8.2115 195° South  Level Estimated
10:46AM 29.2733 -8.2466 195° South  Level Estimated
10:47AM 29.1622 -8.2816 195° South  Level Estimated
10:48AM 29.0512 -8.3165 195° South  Level Estimated
10:49AM 28.9402 -8.3514 195° South  Level Estimated
10:50AM 28.8291 -8.3861 195° South  Level Estimated
10:51AM 28.7181 -8.4208 195° South  Level Estimated
10:52AM 28.6070 -8.4555 195° South  Level Estimated
10:53AM 28.4960 -8.4900 195° South  Level Estimated
10:54AM 28.3849 -8.5245 195° South  Level Estimated
10:55AM 28.2738 -8.5589 195° South  Level Estimated
10:56AM 28.1627 -8.5932 195° South  Level Estimated
10:57AM 28.0516 -8.6275 195° South  Level Estimated
10:58AM 27.9405 -8.6617 195° South  Level Estimated
10:59AM 27.8294 -8.6958 195° South  Level Estimated
11:00AM 27.7182 -8.7298 195° South  Level Estimated
11:01AM 27.6071 -8.7638 195° South  Level Estimated
11:02AM 27.4959 -8.7977 195° South  Level Estimated
11:03AM 27.3848 -8.8316 195° South  Level Estimated
11:04AM 27.2736 -8.8654 195° South  Level Estimated
11:05AM 27.1625 -8.8991 195° South  Level Estimated
11:06AM 27.0513 -8.9327 195° South  Level Estimated
11:07AM 26.9401 -8.9663 195° South  Level Estimated
11:08AM 26.8289 -8.9998 195° South  Level Estimated
11:09AM 26.7177 -9.0332 195° South  Level Estimated
11:10AM 26.6065 -9.0666 195° South  Level Estimated
11:11AM 26.4953 -9.0999 195° South  Level Estimated
11:12AM 26.3840 -9.1332 195° South  Level Estimated
11:13AM 26.2728 -9.1664 195° South  Level Estimated
11:14AM 26.1616 -9.1995 195° South  Level Estimated
11:15AM 26.0503 -9.2326 195° South  Level Estimated
11:16AM 25.9391 -9.2656 195° South  Level Estimated
11:17AM 25.8278 -9.2985 195° South  Level Estimated
11:18AM 25.7165 -9.3314 195° South  Level Estimated
11:19AM 25.6052 -9.3642 195° South  Level Estimated
11:20AM 25.4939 -9.3969 195° South  Level Estimated
11:21AM 25.3827 -9.4296 195° South  Level Estimated
11:22AM 25.2714 -9.4623 195° South  Level Estimated
11:23AM 25.1600 -9.4948 195° South  Level Estimated
11:24AM 25.0487 -9.5273 195° South  Level Estimated
11:25AM 24.9374 -9.5598 195° South  Level Estimated
11:26AM 24.8261 -9.5922 195° South  Level Estimated
11:27AM 24.7147 -9.6245 195° South  Level Estimated
11:28AM 24.6034 -9.6568 195° South  Level Estimated
11:29AM 24.4921 -9.6890 195° South  Level Estimated
11:30AM 24.3807 -9.7212 195° South  Level Estimated
11:31AM 24.2693 -9.7533 195° South  Level Estimated
11:32AM 24.1580 -9.7853 195° South  Level Estimated
11:33AM 24.0466 -9.8173 195° South  Level Estimated
11:34AM 23.9352 -9.8493 195° South  Level Estimated
11:35AM 23.8238 -9.8812 195° South  Level Estimated
11:36AM 23.7124 -9.9130 195° South  Level Estimated
11:37AM 23.6010 -9.9447 195° South  Level Estimated
11:38AM 23.4896 -9.9765 195° South  Level Estimated
11:39AM 23.3782 -10.0081 195° South  Level Estimated
11:40AM 23.2668 -10.0398 195° South  Level Estimated
11:41AM 23.1553 -10.0713 195° South  Level Estimated
11:42AM 23.0439 -10.1028 195° South  Level Estimated
11:43AM 22.9325 -10.1343 195° South  Level Estimated
11:44AM 22.8210 -10.1657 195° South  Level Estimated
11:45AM 22.7096 -10.1970 195° South  Level Estimated
11:46AM 22.5981 -10.2283 195° South  Level Estimated
11:47AM 22.4866 -10.2596 195° South  Level Estimated
11:48AM 22.3752 -10.2908 195° South  Level Estimated
11:49AM 22.2637 -10.3219 195° South  Level Estimated
11:50AM 22.1522 -10.3530 194° South  Level Estimated
11:51AM 22.0407 -10.3841 194° South  Level Estimated
11:52AM 21.9292 -10.4151 194° South  Level Estimated
11:53AM 21.8177 -10.4460 194° South  Level Estimated
11:54AM 21.7062 -10.4769 194° South  Level Estimated
11:55AM 21.5947 -10.5078 194° South  Level Estimated
11:56AM 21.4832 -10.5386 194° South  Level Estimated
11:57AM 21.3717 -10.5694 194° South  Level Estimated
11:58AM 21.2601 -10.6001 194° South  Level Estimated
11:59AM 21.1486 -10.6308 194° South  Level Estimated
12:00PM 21.0370 -10.6614 194° South  Level Estimated
12:01PM 20.9255 -10.6920 194° South  Level Estimated
12:02PM 20.8139 -10.7225 194° South  Level Estimated
12:03PM 20.7024 -10.7530 194° South  Level Estimated
12:04PM 20.5908 -10.7834 194° South  Level Estimated
12:05PM 20.4792 -10.8138 194° South  Level Estimated
12:06PM 20.3677 -10.8442 194° South  Level Estimated
12:07PM 20.2561 -10.8745 194° South  Level Estimated
12:08PM 20.1445 -10.9048 194° South  Level Estimated
12:09PM 20.0329 -10.9350 194° South  Level Estimated
12:10PM 19.9213 -10.9652 194° South  Level Estimated
12:11PM 19.8097 -10.9953 194° South  Level Estimated
12:12PM 19.6981 -11.0254 194° South  Level Estimated
12:13PM 19.5865 -11.0555 194° South  Level Estimated
12:14PM 19.4749 -11.0855 194° South  Level Estimated
12:15PM 19.3633 -11.1154 194° South  Level Estimated
12:16PM 19.2517 -11.1454 194° South  Level Estimated
12:17PM 19.1401 -11.1753 194° South  Level Estimated
12:18PM 19.0284 -11.2051 194° South  Level Estimated
12:19PM 18.9168 -11.2349 194° South  Level Estimated
12:20PM 18.8051 -11.2647 194° South  Level Estimated
12:21PM 18.6935 -11.2944 194° South  Level Estimated
12:22PM 18.5818 -11.3241 194° South  Level Estimated
12:23PM 18.4702 -11.3538 194° South  Level Estimated
12:24PM 18.3585 -11.3834 194° South  Level Estimated
12:25PM 18.2468 -11.4130 194° South  Level Estimated
12:26PM 18.1352 -11.4425 194° South  Level Estimated
12:27PM 18.0235 -11.4720 194° South  Level Estimated
12:28PM 17.9118 -11.5015 194° South  Level Estimated
12:29PM 17.8001 -11.5309 194° South  Level Estimated
12:30PM 17.6885 -11.5603 194° South  Level Estimated
12:31PM 17.5768 -11.5896 194° South  Level Estimated
12:32PM 17.4651 -11.6189 194° South  Level Estimated
12:33PM 17.3534 -11.6482 194° South  Level Estimated
12:34PM 17.2417 -11.6775 194° South  Level Estimated
12:35PM 17.1299 -11.7067 194° South  Level Estimated
12:36PM 17.0182 -11.7359 194° South  Level Estimated
12:37PM 16.9065 -11.7650 194° South  Level Estimated
12:38PM 16.7948 -11.7941 194° South  Level Estimated
12:39PM 16.6831 -11.8232 194° South  Level Estimated
12:40PM 16.5713 -11.8522 194° South  Level Estimated
12:41PM 16.4596 -11.8812 194° South  Level Estimated
12:42PM 16.3479 -11.9102 194° South  Level Estimated
12:43PM 16.2361 -11.9391 194° South  Level Estimated
12:44PM 16.1244 -11.9680 194° South  Level Estimated
12:45PM 16.0126 -11.9969 194° South  Level Estimated
12:46PM 15.9009 -12.0257 194° South  Level Estimated
12:47PM 15.7891 -12.0545 194° South  Level Estimated
12:48PM 15.6774 -12.0833 194° South  Level Estimated
12:49PM 15.5656 -12.1120 194° South  Level Estimated
12:50PM 15.4538 -12.1407 194° South  Level Estimated
12:51PM 15.3420 -12.1694 194° South  Level Estimated
12:52PM 15.2303 -12.1981 194° South  Level Estimated
12:53PM 15.1185 -12.2267 194° South  Level Estimated
12:54PM 15.0067 -12.2553 194° South  Level Estimated
12:55PM 14.8949 -12.2838 194° South  Level Estimated
12:56PM 14.7831 -12.3124 194° South  Level Estimated
12:57PM 14.6713 -12.3409 194° South  Level Estimated
12:58PM 14.5595 -12.3694 194° South  Level Estimated
12:59PM 14.4477 -12.3978 194° South  Level Estimated
01:00PM 14.3359 -12.4262 194° South  Level Estimated
01:01PM 14.2241 -12.4546 194° South  Level Estimated
01:02PM 14.1123 -12.4830 194° South  Level Estimated
01:03PM 14.0005 -12.5113 194° South  Level Estimated
01:04PM 13.8887 -12.5396 194° South  Level Estimated
01:05PM 13.7769 -12.5679 194° South  Level Estimated
01:06PM 13.6650 -12.5961 194° South  Level Estimated
01:07PM 13.5532 -12.6243 194° South  Level Estimated
01:08PM 13.4414 -12.6525 194° South  Level Estimated
01:09PM 13.3296 -12.6807 194° South  Level Estimated
01:10PM 13.2177 -12.7088 194° South  Level Estimated
01:11PM 13.1059 -12.7370 194° South  Level Estimated
01:12PM 12.9940 -12.7650 194° South  Level Estimated
01:13PM 12.8822 -12.7931 194° South  Level Estimated
01:14PM 12.7703 -12.8212 194° South  Level Estimated
01:15PM 12.6585 -12.8492 194° South  Level Estimated
01:16PM 12.5466 -12.8772 194° South  Level Estimated
01:17PM 12.4348 -12.9051 194° South  Level Estimated
01:18PM 12.3229 -12.9331 194° South  Level Estimated
01:19PM 12.2111 -12.9610 194° South  Level Estimated
01:20PM 12.0992 -12.9889 194° South  Level Estimated
01:21PM 11.9873 -13.0168 194° South  Level Estimated
01:22PM 11.8755 -13.0446 194° South  Level Estimated
01:23PM 11.7636 -13.0724 194° South  Level Estimated
01:24PM 11.6517 -13.1003 194° South  Level Estimated
01:25PM 11.5398 -13.1280 194° South  Level Estimated
01:26PM 11.4279 -13.1558 194° South  Level Estimated
01:27PM 11.3160 -13.1835 194° South  Level Estimated
01:28PM 11.2042 -13.2113 194° South  Level Estimated
01:29PM 11.0923 -13.2389 194° South  Level Estimated
01:30PM 10.9804 -13.2666 194° South  Level Estimated
01:31PM 10.8685 -13.2943 194° South  Level Estimated
01:32PM 10.7566 -13.3219 194° South  Level Estimated
01:33PM 10.6447 -13.3495 194° South  Level Estimated
01:34PM 10.5328 -13.3771 194° South  Level Estimated
01:35PM 10.4209 -13.4047 194° South  Level Estimated
01:36PM 10.3090 -13.4322 194° South  Level Estimated
01:37PM 10.1971 -13.4597 194° South  Level Estimated
01:38PM 10.0851 -13.4873 194° South  Level Estimated
01:39PM 9.9732 -13.5147 194° South  Level Estimated
01:40PM 9.8613 -13.5422 194° South  Level Estimated
01:41PM 9.7494 -13.5697 194° South  Level Estimated
01:42PM 9.6375 -13.5971 194° South  Level Estimated
01:43PM 9.5769 -13.6120 194° South  Level Estimated
01:44PM 9.5769 -13.6120 225° Southwest  Level Estimated
01:45PM 9.5769 -13.6120 225° Southwest  Level Estimated